Leverburgh, United Kingdom
Current Conditions -  °F | °C
As of 7:50 AM on Tuesday 27 Jan 2015 (Local Time) from EGPL Reporting Station
Broken Clouds Broken Clouds  
Wind Chill: 40°   Ceiling: 1800
Heat Index: 46°   Visibility: 4mi
Dew Point: 43°   Wind: 16mph
Humidity: 87%   Direction: 260°W
Pressure: 30.09"   Gusts: NA
Location:  57.77°N, 7.01°W
Report Text: EGPL 270750Z 26014KT 7000 SCT014 BKN018 08/06 Q1019
Loading
Personal Weather Stations






























Interactive Weather Map New forecast layout! Learn more

10-Day Weather Forecast

Advertisements
Track Severe Weather on mobile